Airfield :
LOGIN :

Register | Disclaimer

   EN    FR    IT 

 










Legend :    VFR   Marginal VFR   IFR   Intensive IFR   Very Intensive IFR
Visi :
Ceiling :
>= 8 km
>= 3000ft
5 to 8 km
1000 to 3000 ft
1500m to 5 km
500 to 1000 ft
800 to 1500m
200 to 500 ft
< 800m
< 200 ft
Symbols :   Thunderstorms  Fog  Heavy snow  Heavy precipitations  Wind > 20 kt
SIGMETs :     Misc.  Thunderstorms  Icing  Turbulence  Mountain Waves  Volcanic Ashes






- Airport Elevation : 580 ft


LFOA - Avord

CURRENT METAR :
  • 231830Z AUTO 08004KT CAVOK 07/04 Q1025

EXPIRED METARs :
  • 231800Z AUTO 04004KT CAVOK 09/04 Q1025
  • 231730Z AUTO 06005KT CAVOK 09/05 Q1025
  • 231700Z AUTO 05005KT CAVOK 10/04 Q1025
  • 231630Z AUTO 07005KT CAVOK 11/04 Q1025
  • 231600Z AUTO 06008KT 9999 FEW041 12/05 Q1025
  • 231530Z AUTO 07008KT 9999 BKN041 13/04 Q1025

TAF TAF LFOA
Valid from the 23 at 09:00 until the 24 at 09:00 UTC


230800Z 2309/2409 06005KT CAVOK TX14/2314Z TN03/2406Z
PROB30
TEMPO 2322/2408 3000 BR
BECMG 2407/2409 14010KT



MET'MAP, your aeronautical weather chart ! - Copyright ORBIFLY December 2007 - Disclaimer

ORBIFLY MET'MAP TEAM :

Programming & Development : Alexandra Zaïnal
Concept & original design : Baudouin d'Aumeries
Assistance for programming : Marc-Olivier Méhu
Technical & hardware support : Manuel Goepfert

Contact : metmap@orbifly.com




SOURCES & CREDITS :

   NOAA